sensor_id;sensor_type;location;lat;lon;timestamp;temperature;humidity
4820;DHT22;2424;49.696;6.630;2023-10-08T00:00:48;14.10;99.90
4820;DHT22;2424;49.696;6.630;2023-10-08T00:06:12;14.10;99.90
4820;DHT22;2424;49.696;6.630;2023-10-08T00:11:37;14.10;99.90
4820;DHT22;2424;49.696;6.630;2023-10-08T00:16:59;14.00;99.90
4820;DHT22;2424;49.696;6.630;2023-10-08T00:22:21;14.00;99.90
4820;DHT22;2424;49.696;6.630;2023-10-08T00:27:47;14.00;99.90
4820;DHT22;2424;49.696;6.630;2023-10-08T00:33:11;14.00;99.90
4820;DHT22;2424;49.696;6.630;2023-10-08T00:38:33;13.90;99.90
4820;DHT22;2424;49.696;6.630;2023-10-08T00:43:57;13.90;99.90
4820;DHT22;2424;49.696;6.630;2023-10-08T00:49:22;13.80;99.90
4820;DHT22;2424;49.696;6.630;2023-10-08T00:54:59;13.70;99.90
4820;DHT22;2424;49.696;6.630;2023-10-08T01:00:31;13.60;99.90
4820;DHT22;2424;49.696;6.630;2023-10-08T01:05:58;13.60;99.90
4820;DHT22;2424;49.696;6.630;2023-10-08T01:11:21;13.50;99.90
4820;DHT22;2424;49.696;6.630;2023-10-08T01:16:53;13.50;99.90
4820;DHT22;2424;49.696;6.630;2023-10-08T01:22:17;13.60;99.90
4820;DHT22;2424;49.696;6.630;2023-10-08T01:27:40;13.60;99.90
4820;DHT22;2424;49.696;6.630;2023-10-08T01:33:02;13.50;99.90
4820;DHT22;2424;49.696;6.630;2023-10-08T01:38:26;13.50;99.90
4820;DHT22;2424;49.696;6.630;2023-10-08T01:43:48;13.40;99.90
4820;DHT22;2424;49.696;6.630;2023-10-08T01:49:12;13.50;99.90
4820;DHT22;2424;49.696;6.630;2023-10-08T01:54:37;13.50;99.90
4820;DHT22;2424;49.696;6.630;2023-10-08T01:59:58;13.50;99.90
4820;DHT22;2424;49.696;6.630;2023-10-08T02:05:20;13.50;99.90
4820;DHT22;2424;49.696;6.630;2023-10-08T02:10:44;13.50;99.90
4820;DHT22;2424;49.696;6.630;2023-10-08T02:16:07;13.50;99.90
4820;DHT22;2424;49.696;6.630;2023-10-08T02:21:29;13.50;99.90
4820;DHT22;2424;49.696;6.630;2023-10-08T02:26:53;13.40;99.90
4820;DHT22;2424;49.696;6.630;2023-10-08T02:32:16;13.40;99.90
4820;DHT22;2424;49.696;6.630;2023-10-08T02:37:39;13.40;99.90
4820;DHT22;2424;49.696;6.630;2023-10-08T02:43:03;13.40;99.90
4820;DHT22;2424;49.696;6.630;2023-10-08T02:48:29;13.40;99.90
4820;DHT22;2424;49.696;6.630;2023-10-08T02:53:50;13.40;99.90
4820;DHT22;2424;49.696;6.630;2023-10-08T02:59:14;13.40;99.90
4820;DHT22;2424;49.696;6.630;2023-10-08T03:04:36;13.30;99.90
4820;DHT22;2424;49.696;6.630;2023-10-08T03:10:00;13.30;99.90
4820;DHT22;2424;49.696;6.630;2023-10-08T03:15:28;13.30;99.90
4820;DHT22;2424;49.696;6.630;2023-10-08T03:20:51;13.20;99.90
4820;DHT22;2424;49.696;6.630;2023-10-08T03:26:13;13.10;99.90
4820;DHT22;2424;49.696;6.630;2023-10-08T03:31:55;13.00;99.90
4820;DHT22;2424;49.696;6.630;2023-10-08T03:37:20;13.00;99.90
4820;DHT22;2424;49.696;6.630;2023-10-08T03:42:49;13.00;99.90
4820;DHT22;2424;49.696;6.630;2023-10-08T03:48:13;13.00;99.90
4820;DHT22;2424;49.696;6.630;2023-10-08T03:53:35;13.00;99.90
4820;DHT22;2424;49.696;6.630;2023-10-08T03:59:12;13.10;99.90
4820;DHT22;2424;49.696;6.630;2023-10-08T04:04:36;13.00;99.90
4820;DHT22;2424;49.696;6.630;2023-10-08T04:10:11;13.00;99.90
4820;DHT22;2424;49.696;6.630;2023-10-08T04:16:10;13.00;99.90
4820;DHT22;2424;49.696;6.630;2023-10-08T04:21:33;13.00;99.90
4820;DHT22;2424;49.696;6.630;2023-10-08T04:26:56;13.00;99.90
4820;DHT22;2424;49.696;6.630;2023-10-08T04:32:19;13.00;99.90
4820;DHT22;2424;49.696;6.630;2023-10-08T04:37:46;12.90;99.90
4820;DHT22;2424;49.696;6.630;2023-10-08T04:43:13;12.70;99.90
4820;DHT22;2424;49.696;6.630;2023-10-08T04:48:36;12.70;99.90
4820;DHT22;2424;49.696;6.630;2023-10-08T04:53:59;12.60;99.90
4820;DHT22;2424;49.696;6.630;2023-10-08T04:59:25;12.60;99.90
4820;DHT22;2424;49.696;6.630;2023-10-08T05:04:52;12.50;99.90
4820;DHT22;2424;49.696;6.630;2023-10-08T05:10:45;12.70;99.90
4820;DHT22;2424;49.696;6.630;2023-10-08T05:16:23;12.70;99.90
4820;DHT22;2424;49.696;6.630;2023-10-08T05:22:11;12.50;99.90
4820;DHT22;2424;49.696;6.630;2023-10-08T05:27:53;12.30;99.90
4820;DHT22;2424;49.696;6.630;2023-10-08T05:33:29;12.30;99.90
4820;DHT22;2424;49.696;6.630;2023-10-08T05:39:16;12.20;99.90
4820;DHT22;2424;49.696;6.630;2023-10-08T05:44:51;12.10;99.90
4820;DHT22;2424;49.696;6.630;2023-10-08T05:50:34;12.10;99.90
4820;DHT22;2424;49.696;6.630;2023-10-08T05:56:15;12.00;99.90
4820;DHT22;2424;49.696;6.630;2023-10-08T06:01:51;12.00;99.90
4820;DHT22;2424;49.696;6.630;2023-10-08T06:07:26;12.00;99.90
4820;DHT22;2424;49.696;6.630;2023-10-08T06:13:10;12.00;99.90
4820;DHT22;2424;49.696;6.630;2023-10-08T06:18:35;12.00;99.90
4820;DHT22;2424;49.696;6.630;2023-10-08T06:23:57;11.90;99.90
4820;DHT22;2424;49.696;6.630;2023-10-08T06:29:20;12.00;99.90
4820;DHT22;2424;49.696;6.630;2023-10-08T06:34:49;12.00;99.90
4820;DHT22;2424;49.696;6.630;2023-10-08T06:40:12;12.10;99.90
4820;DHT22;2424;49.696;6.630;2023-10-08T06:45:55;12.10;99.90
4820;DHT22;2424;49.696;6.630;2023-10-08T06:51:20;12.20;99.90
4820;DHT22;2424;49.696;6.630;2023-10-08T06:56:42;12.20;99.90
4820;DHT22;2424;49.696;6.630;2023-10-08T07:02:07;12.30;99.90
4820;DHT22;2424;49.696;6.630;2023-10-08T07:07:31;12.30;99.90
4820;DHT22;2424;49.696;6.630;2023-10-08T07:12:59;12.20;99.90
4820;DHT22;2424;49.696;6.630;2023-10-08T07:18:23;12.20;99.90
4820;DHT22;2424;49.696;6.630;2023-10-08T07:23:47;12.30;99.90
4820;DHT22;2424;49.696;6.630;2023-10-08T07:29:17;12.40;99.90
4820;DHT22;2424;49.696;6.630;2023-10-08T07:34:39;12.50;99.90
4820;DHT22;2424;49.696;6.630;2023-10-08T07:40:03;12.60;99.90
4820;DHT22;2424;49.696;6.630;2023-10-08T07:45:30;12.60;99.90
4820;DHT22;2424;49.696;6.630;2023-10-08T07:50:56;12.60;99.90
4820;DHT22;2424;49.696;6.630;2023-10-08T07:56:19;12.60;99.90
4820;DHT22;2424;49.696;6.630;2023-10-08T08:01:42;12.70;99.90
4820;DHT22;2424;49.696;6.630;2023-10-08T08:07:04;12.80;99.90
4820;DHT22;2424;49.696;6.630;2023-10-08T08:12:28;12.90;99.90
4820;DHT22;2424;49.696;6.630;2023-10-08T08:17:53;13.00;99.90
4820;DHT22;2424;49.696;6.630;2023-10-08T08:23:15;13.20;99.90
4820;DHT22;2424;49.696;6.630;2023-10-08T08:28:40;13.30;99.90
4820;DHT22;2424;49.696;6.630;2023-10-08T08:34:03;13.50;99.90
4820;DHT22;2424;49.696;6.630;2023-10-08T08:39:30;13.80;99.90
4820;DHT22;2424;49.696;6.630;2023-10-08T08:44:56;13.90;99.90
4820;DHT22;2424;49.696;6.630;2023-10-08T08:50:20;14.20;99.90
4820;DHT22;2424;49.696;6.630;2023-10-08T08:55:42;14.30;99.90
4820;DHT22;2424;49.696;6.630;2023-10-08T09:01:07;14.50;99.90
4820;DHT22;2424;49.696;6.630;2023-10-08T09:06:34;14.60;99.90
4820;DHT22;2424;49.696;6.630;2023-10-08T09:11:58;14.80;99.90
4820;DHT22;2424;49.696;6.630;2023-10-08T09:17:22;14.90;99.90
4820;DHT22;2424;49.696;6.630;2023-10-08T09:22:45;15.10;99.90
4820;DHT22;2424;49.696;6.630;2023-10-08T09:28:08;15.30;99.90
4820;DHT22;2424;49.696;6.630;2023-10-08T09:33:34;15.50;99.90
4820;DHT22;2424;49.696;6.630;2023-10-08T09:39:00;15.50;99.90
4820;DHT22;2424;49.696;6.630;2023-10-08T09:44:22;15.70;99.90
4820;DHT22;2424;49.696;6.630;2023-10-08T09:49:56;16.10;99.90
4820;DHT22;2424;49.696;6.630;2023-10-08T09:55:18;16.30;99.90
4820;DHT22;2424;49.696;6.630;2023-10-08T10:00:41;16.20;99.90
4820;DHT22;2424;49.696;6.630;2023-10-08T10:06:12;16.40;99.90
4820;DHT22;2424;49.696;6.630;2023-10-08T10:11:35;16.70;99.90
4820;DHT22;2424;49.696;6.630;2023-10-08T10:17:12;16.60;99.90
4820;DHT22;2424;49.696;6.630;2023-10-08T10:22:36;16.70;99.90
4820;DHT22;2424;49.696;6.630;2023-10-08T10:28:21;17.10;99.90
4820;DHT22;2424;49.696;6.630;2023-10-08T10:33:43;17.10;99.90
4820;DHT22;2424;49.696;6.630;2023-10-08T10:39:09;17.20;99.90
4820;DHT22;2424;49.696;6.630;2023-10-08T10:44:37;17.30;99.90
4820;DHT22;2424;49.696;6.630;2023-10-08T10:50:00;17.60;99.90
4820;DHT22;2424;49.696;6.630;2023-10-08T10:55:41;17.60;99.90
4820;DHT22;2424;49.696;6.630;2023-10-08T11:01:22;17.70;99.90
4820;DHT22;2424;49.696;6.630;2023-10-08T11:06:47;17.80;99.90
4820;DHT22;2424;49.696;6.630;2023-10-08T11:12:14;18.20;99.90
4820;DHT22;2424;49.696;6.630;2023-10-08T11:17:44;18.40;99.90
4820;DHT22;2424;49.696;6.630;2023-10-08T11:23:07;18.70;99.90
4820;DHT22;2424;49.696;6.630;2023-10-08T11:28:42;19.00;99.90
4820;DHT22;2424;49.696;6.630;2023-10-08T11:34:04;19.10;99.90
4820;DHT22;2424;49.696;6.630;2023-10-08T11:39:39;19.40;99.90
4820;DHT22;2424;49.696;6.630;2023-10-08T11:45:08;19.70;99.90
4820;DHT22;2424;49.696;6.630;2023-10-08T11:50:39;20.00;99.90
4820;DHT22;2424;49.696;6.630;2023-10-08T11:56:01;20.20;99.90
4820;DHT22;2424;49.696;6.630;2023-10-08T12:01:31;20.30;99.90
4820;DHT22;2424;49.696;6.630;2023-10-08T12:06:56;20.40;99.90
4820;DHT22;2424;49.696;6.630;2023-10-08T12:12:17;20.70;99.90
4820;DHT22;2424;49.696;6.630;2023-10-08T12:17:48;20.90;99.90
4820;DHT22;2424;49.696;6.630;2023-10-08T12:23:30;21.00;99.90
4820;DHT22;2424;49.696;6.630;2023-10-08T12:28:54;21.10;99.90
4820;DHT22;2424;49.696;6.630;2023-10-08T12:34:17;21.50;99.90
4820;DHT22;2424;49.696;6.630;2023-10-08T12:39:39;21.70;99.90
4820;DHT22;2424;49.696;6.630;2023-10-08T12:45:17;22.00;99.90
4820;DHT22;2424;49.696;6.630;2023-10-08T12:50:42;22.00;99.90
4820;DHT22;2424;49.696;6.630;2023-10-08T12:56:05;22.20;99.90
4820;DHT22;2424;49.696;6.630;2023-10-08T13:01:27;22.30;99.90
4820;DHT22;2424;49.696;6.630;2023-10-08T13:06:51;22.50;99.90
4820;DHT22;2424;49.696;6.630;2023-10-08T13:12:17;22.50;99.90
4820;DHT22;2424;49.696;6.630;2023-10-08T13:17:39;22.70;99.90
4820;DHT22;2424;49.696;6.630;2023-10-08T13:23:04;22.60;99.90
4820;DHT22;2424;49.696;6.630;2023-10-08T13:28:26;22.70;99.90
4820;DHT22;2424;49.696;6.630;2023-10-08T13:33:48;22.90;99.90
4820;DHT22;2424;49.696;6.630;2023-10-08T13:39:13;22.80;99.90
4820;DHT22;2424;49.696;6.630;2023-10-08T13:44:38;22.80;99.90
4820;DHT22;2424;49.696;6.630;2023-10-08T13:50:04;22.80;99.90
4820;DHT22;2424;49.696;6.630;2023-10-08T13:55:32;23.00;99.90
4820;DHT22;2424;49.696;6.630;2023-10-08T14:00:54;23.10;99.90
4820;DHT22;2424;49.696;6.630;2023-10-08T14:06:16;23.10;99.90
4820;DHT22;2424;49.696;6.630;2023-10-08T14:11:39;22.80;99.90
4820;DHT22;2424;49.696;6.630;2023-10-08T14:17:02;23.00;99.90
4820;DHT22;2424;49.696;6.630;2023-10-08T14:22:26;22.60;99.90
4820;DHT22;2424;49.696;6.630;2023-10-08T14:27:50;22.20;99.90
4820;DHT22;2424;49.696;6.630;2023-10-08T14:33:13;22.20;99.90
4820;DHT22;2424;49.696;6.630;2023-10-08T14:38:44;22.30;99.90
4820;DHT22;2424;49.696;6.630;2023-10-08T14:44:25;22.10;99.90
4820;DHT22;2424;49.696;6.630;2023-10-08T14:49:47;22.00;99.90
4820;DHT22;2424;49.696;6.630;2023-10-08T14:55:09;21.90;99.90
4820;DHT22;2424;49.696;6.630;2023-10-08T15:00:33;21.80;99.90
4820;DHT22;2424;49.696;6.630;2023-10-08T15:05:56;21.90;99.90
4820;DHT22;2424;49.696;6.630;2023-10-08T15:11:18;22.00;99.90
4820;DHT22;2424;49.696;6.630;2023-10-08T15:16:41;22.10;99.90
4820;DHT22;2424;49.696;6.630;2023-10-08T15:22:07;22.10;99.90
4820;DHT22;2424;49.696;6.630;2023-10-08T15:27:28;22.10;99.90
4820;DHT22;2424;49.696;6.630;2023-10-08T15:32:53;22.10;99.90
4820;DHT22;2424;49.696;6.630;2023-10-08T15:38:15;22.00;99.90
4820;DHT22;2424;49.696;6.630;2023-10-08T15:43:37;22.00;99.90
4820;DHT22;2424;49.696;6.630;2023-10-08T15:49:01;22.00;99.90
4820;DHT22;2424;49.696;6.630;2023-10-08T15:54:23;22.00;99.90
4820;DHT22;2424;49.696;6.630;2023-10-08T15:59:45;21.90;99.90
4820;DHT22;2424;49.696;6.630;2023-10-08T16:05:08;21.90;99.90
4820;DHT22;2424;49.696;6.630;2023-10-08T16:10:30;21.70;99.90
4820;DHT22;2424;49.696;6.630;2023-10-08T16:15:52;21.50;99.90
4820;DHT22;2424;49.696;6.630;2023-10-08T16:21:15;21.30;99.90
4820;DHT22;2424;49.696;6.630;2023-10-08T16:26:41;21.20;99.90
4820;DHT22;2424;49.696;6.630;2023-10-08T16:32:03;20.90;99.90
4820;DHT22;2424;49.696;6.630;2023-10-08T16:37:28;20.60;99.90
4820;DHT22;2424;49.696;6.630;2023-10-08T16:42:50;20.40;99.90
4820;DHT22;2424;49.696;6.630;2023-10-08T16:48:13;20.20;99.90
4820;DHT22;2424;49.696;6.630;2023-10-08T16:53:37;19.90;99.90
4820;DHT22;2424;49.696;6.630;2023-10-08T16:59:00;19.70;99.90
4820;DHT22;2424;49.696;6.630;2023-10-08T17:04:23;19.50;99.90
4820;DHT22;2424;49.696;6.630;2023-10-08T17:09:46;19.30;99.90
4820;DHT22;2424;49.696;6.630;2023-10-08T17:15:09;19.20;99.90
4820;DHT22;2424;49.696;6.630;2023-10-08T17:20:33;19.00;99.90
4820;DHT22;2424;49.696;6.630;2023-10-08T17:25:56;18.70;99.90
4820;DHT22;2424;49.696;6.630;2023-10-08T17:31:19;18.60;99.90
4820;DHT22;2424;49.696;6.630;2023-10-08T17:36:41;18.40;99.90
4820;DHT22;2424;49.696;6.630;2023-10-08T17:42:05;18.20;99.90
4820;DHT22;2424;49.696;6.630;2023-10-08T17:47:28;18.10;99.90
4820;DHT22;2424;49.696;6.630;2023-10-08T17:52:50;18.00;99.90
4820;DHT22;2424;49.696;6.630;2023-10-08T17:58:13;17.90;99.90
4820;DHT22;2424;49.696;6.630;2023-10-08T18:03:36;17.90;99.90
4820;DHT22;2424;49.696;6.630;2023-10-08T18:08:59;17.80;99.90
4820;DHT22;2424;49.696;6.630;2023-10-08T18:14:23;17.70;99.90
4820;DHT22;2424;49.696;6.630;2023-10-08T18:19:44;17.60;99.90
4820;DHT22;2424;49.696;6.630;2023-10-08T18:25:07;17.50;99.90
4820;DHT22;2424;49.696;6.630;2023-10-08T18:30:32;17.50;99.90
4820;DHT22;2424;49.696;6.630;2023-10-08T18:36:02;17.40;99.90
4820;DHT22;2424;49.696;6.630;2023-10-08T18:41:24;17.30;99.90
4820;DHT22;2424;49.696;6.630;2023-10-08T18:46:48;17.30;99.90
4820;DHT22;2424;49.696;6.630;2023-10-08T18:52:10;17.10;99.90
4820;DHT22;2424;49.696;6.630;2023-10-08T18:57:33;17.10;99.90
4820;DHT22;2424;49.696;6.630;2023-10-08T19:02:56;16.90;99.90
4820;DHT22;2424;49.696;6.630;2023-10-08T19:08:18;16.80;99.90
4820;DHT22;2424;49.696;6.630;2023-10-08T19:13:41;16.70;99.90
4820;DHT22;2424;49.696;6.630;2023-10-08T19:19:05;16.60;99.90
4820;DHT22;2424;49.696;6.630;2023-10-08T19:24:28;16.50;99.90
4820;DHT22;2424;49.696;6.630;2023-10-08T19:29:51;16.40;99.90
4820;DHT22;2424;49.696;6.630;2023-10-08T19:35:15;16.30;99.90
4820;DHT22;2424;49.696;6.630;2023-10-08T19:40:40;16.30;99.90
4820;DHT22;2424;49.696;6.630;2023-10-08T19:46:02;16.20;99.90
4820;DHT22;2424;49.696;6.630;2023-10-08T19:51:33;16.10;99.90
4820;DHT22;2424;49.696;6.630;2023-10-08T19:56:56;16.00;99.90
4820;DHT22;2424;49.696;6.630;2023-10-08T20:02:20;16.00;99.90
4820;DHT22;2424;49.696;6.630;2023-10-08T20:07:44;16.00;99.90
4820;DHT22;2424;49.696;6.630;2023-10-08T20:13:06;15.90;99.90
4820;DHT22;2424;49.696;6.630;2023-10-08T20:18:28;15.90;99.90
4820;DHT22;2424;49.696;6.630;2023-10-08T20:23:52;15.90;99.90
4820;DHT22;2424;49.696;6.630;2023-10-08T20:29:14;15.90;99.90
4820;DHT22;2424;49.696;6.630;2023-10-08T20:34:36;15.80;99.90
4820;DHT22;2424;49.696;6.630;2023-10-08T20:40:01;15.70;99.90
4820;DHT22;2424;49.696;6.630;2023-10-08T20:45:26;15.50;99.90
4820;DHT22;2424;49.696;6.630;2023-10-08T20:50:49;15.50;99.90
4820;DHT22;2424;49.696;6.630;2023-10-08T20:56:12;15.50;99.90
4820;DHT22;2424;49.696;6.630;2023-10-08T21:01:34;15.50;99.90
4820;DHT22;2424;49.696;6.630;2023-10-08T21:06:56;15.50;99.90
4820;DHT22;2424;49.696;6.630;2023-10-08T21:12:19;15.50;99.90
4820;DHT22;2424;49.696;6.630;2023-10-08T21:17:42;15.40;99.90
4820;DHT22;2424;49.696;6.630;2023-10-08T21:23:05;15.30;99.90
4820;DHT22;2424;49.696;6.630;2023-10-08T21:28:28;15.30;99.90
4820;DHT22;2424;49.696;6.630;2023-10-08T21:33:50;15.20;99.90
4820;DHT22;2424;49.696;6.630;2023-10-08T21:39:12;15.10;99.90
4820;DHT22;2424;49.696;6.630;2023-10-08T21:44:38;15.20;99.90
4820;DHT22;2424;49.696;6.630;2023-10-08T21:50:00;15.10;99.90
4820;DHT22;2424;49.696;6.630;2023-10-08T21:55:23;15.00;99.90
4820;DHT22;2424;49.696;6.630;2023-10-08T22:00:47;14.90;99.90
4820;DHT22;2424;49.696;6.630;2023-10-08T22:06:20;14.80;99.90
4820;DHT22;2424;49.696;6.630;2023-10-08T22:11:43;14.70;99.90
4820;DHT22;2424;49.696;6.630;2023-10-08T22:17:06;14.60;99.90
4820;DHT22;2424;49.696;6.630;2023-10-08T22:22:32;14.50;99.90
4820;DHT22;2424;49.696;6.630;2023-10-08T22:27:54;14.40;99.90
4820;DHT22;2424;49.696;6.630;2023-10-08T22:33:20;14.40;99.90
4820;DHT22;2424;49.696;6.630;2023-10-08T22:38:47;14.40;99.90
4820;DHT22;2424;49.696;6.630;2023-10-08T22:44:10;14.30;99.90
4820;DHT22;2424;49.696;6.630;2023-10-08T22:49:35;14.30;99.90
4820;DHT22;2424;49.696;6.630;2023-10-08T22:54:57;14.20;99.90
4820;DHT22;2424;49.696;6.630;2023-10-08T23:00:19;14.10;99.90
4820;DHT22;2424;49.696;6.630;2023-10-08T23:05:48;14.10;99.90
4820;DHT22;2424;49.696;6.630;2023-10-08T23:11:12;14.00;99.90
4820;DHT22;2424;49.696;6.630;2023-10-08T23:16:35;13.90;99.90
4820;DHT22;2424;49.696;6.630;2023-10-08T23:21:59;13.80;99.90
4820;DHT22;2424;49.696;6.630;2023-10-08T23:27:22;13.80;99.90
4820;DHT22;2424;49.696;6.630;2023-10-08T23:32:45;13.80;99.90
4820;DHT22;2424;49.696;6.630;2023-10-08T23:38:08;13.70;99.90
4820;DHT22;2424;49.696;6.630;2023-10-08T23:43:38;13.70;99.90
4820;DHT22;2424;49.696;6.630;2023-10-08T23:49:11;13.70;99.90
4820;DHT22;2424;49.696;6.630;2023-10-08T23:54:38;13.60;99.90
